Time;durP1;ratioP1;P1;durP2;ratioP2;P2;SDS_P1;SDS_P2;PMS_P1;PMS_P2;Temp;Humidity;BMP_temperature;BMP_pressure;BME280_temperature;BME280_humidity;BME280_pressure;Samples;Min_cycle;Max_cycle;Signal;HPM_P1;HPM_P2
2021/03/02 00:01:27;;;;;;;3.15;1.40;;;4.70;85.90;;;;;;4922973;29;20044;-81
2021/03/02 00:03:54;;;;;;;3.30;1.67;;;4.70;85.90;;;;;;4906708;29;20064;-81
2021/03/02 00:06:20;;;;;;;3.72;1.80;;;4.70;85.90;;;;;;4906258;29;20046;-81
2021/03/02 00:08:52;;;;;;;4.15;1.75;;;4.70;85.90;;;;;;4891024;29;20055;-83
2021/03/02 00:11:18;;;;;;;3.42;1.48;;;4.60;85.90;;;;;;4906740;29;20445;-81
2021/03/02 00:13:49;;;;;;;4.10;1.80;;;4.60;85.90;;;;;;4960529;28;20130;-84
2021/03/02 00:16:24;;;;;;;3.95;1.45;;;4.60;85.90;;;;;;4922375;29;20143;-82
2021/03/02 00:18:56;;;;;;;2.35;1.05;;;4.60;86.00;;;;;;4940387;29;20050;-81
2021/03/02 00:21:25;;;;;;;;;;;4.60;86.00;;;;;;4937069;29;20044;-80
2021/03/02 00:23:57;;;;;;;3.15;1.40;;;4.70;86.00;;;;;;4937958;29;19906;-83
2021/03/02 00:26:27;;;;;;;4.20;1.70;;;4.60;86.00;;;;;;4938240;29;20039;-81
2021/03/02 00:28:59;;;;;;;3.08;1.40;;;4.60;86.00;;;;;;4922157;29;20032;-83
2021/03/02 00:31:29;;;;;;;3.90;1.75;;;4.50;86.00;;;;;;4884139;29;20080;-83
2021/03/02 00:33:55;;;;;;;3.25;1.33;;;4.50;86.00;;;;;;4852258;29;20049;-83
2021/03/02 00:36:21;;;;;;;3.67;1.70;;;4.50;86.10;;;;;;4879970;29;20052;-83
2021/03/02 00:38:47;;;;;;;2.70;1.38;;;4.50;86.10;;;;;;4848713;29;20048;-80
2021/03/02 00:41:15;;;;;;;2.67;1.30;;;4.50;86.20;;;;;;4850109;29;20060;-84
2021/03/02 00:43:41;;;;;;;3.20;1.20;;;4.40;86.10;;;;;;4879164;29;20030;-82
2021/03/02 00:46:07;;;;;;;3.65;1.50;;;4.40;86.20;;;;;;4864637;29;20055;-82
2021/03/02 00:48:32;;;;;;;3.75;1.40;;;4.40;86.20;;;;;;4868822;29;20037;-81
2021/03/02 00:51:00;;;;;;;4.63;1.67;;;4.40;86.20;;;;;;4879744;29;20400;-81
2021/03/02 00:53:26;;;;;;;2.70;1.42;;;4.30;86.30;;;;;;4878648;29;20519;-83
2021/03/02 00:55:52;;;;;;;3.95;1.75;;;4.30;86.30;;;;;;4885400;29;20041;-84
2021/03/02 00:59:06;;;;;;;3.00;1.40;;;4.30;86.40;;;;;;4865450;29;20063;-83
2021/03/02 01:01:32;;;;;;;2.97;1.27;;;4.30;86.50;;;;;;4882021;29;20052;-80
2021/03/02 01:04:19;;;;;;;3.17;1.60;;;4.30;86.40;;;;;;4895615;29;20049;-83
2021/03/02 01:06:44;;;;;;;4.43;1.80;;;4.30;86.40;;;;;;4850790;29;20468;-82
2021/03/02 01:09:10;;;;;;;2.65;1.25;;;4.30;86.40;;;;;;4887269;29;20073;-82
2021/03/02 01:11:36;;;;;;;4.25;2.05;;;4.30;86.50;;;;;;4897175;29;20087;-81
2021/03/02 01:14:05;;;;;;;3.05;1.42;;;4.20;86.40;;;;;;4901487;29;20052;-81
2021/03/02 01:20:05;;;;;;;3.75;1.58;;;4.20;86.50;;;;;;4839238;29;20053;-82
2021/03/02 01:22:31;;;;;;;3.85;1.70;;;4.20;86.50;;;;;;4837000;29;20054;-77
2021/03/02 01:24:57;;;;;;;4.28;1.63;;;4.20;86.50;;;;;;4844471;29;20045;-79
2021/03/02 01:27:22;;;;;;;3.72;1.63;;;4.20;87.20;;;;;;4860515;29;20497;-79
2021/03/02 01:29:48;;;;;;;2.83;1.50;;;4.20;86.60;;;;;;4845632;29;20057;-80
2021/03/02 01:32:17;;;;;;;3.97;1.90;;;4.10;86.60;;;;;;4848591;29;20045;-81
2021/03/02 01:34:48;;;;;;;4.50;1.95;;;4.10;86.70;;;;;;4847890;29;20120;-80
2021/03/02 01:37:14;;;;;;;3.65;1.42;;;4.10;86.70;;;;;;4853126;29;20042;-79
2021/03/02 01:39:39;;;;;;;5.35;1.90;;;4.10;86.70;;;;;;4845327;29;20034;-79
2021/03/02 01:42:05;;;;;;;4.55;2.13;;;4.00;86.70;;;;;;4826801;29;20129;-80
2021/03/02 01:44:31;;;;;;;3.42;1.55;;;4.00;86.70;;;;;;4841670;29;20038;-81
2021/03/02 01:46:57;;;;;;;4.55;1.80;;;4.00;87.00;;;;;;4849198;29;20045;-82
2021/03/02 01:49:24;;;;;;;4.13;1.77;;;4.00;86.80;;;;;;4882319;29;20100;-81
2021/03/02 01:51:50;;;;;;;4.93;2.10;;;4.00;86.90;;;;;;4904339;29;20060;-82
2021/03/02 01:54:16;;;;;;;3.65;1.60;;;3.90;86.90;;;;;;4936843;29;20059;-82
2021/03/02 01:56:43;;;;;;;3.67;1.70;;;4.00;87.00;;;;;;4914402;29;20669;-82
2021/03/02 01:59:11;;;;;;;3.95;1.63;;;3.90;87.10;;;;;;4911626;29;20033;-78
2021/03/02 02:01:38;;;;;;;4.03;1.70;;;3.80;87.00;;;;;;4937906;28;20414;-83
2021/03/02 02:04:28;;;;;;;5.03;2.00;;;3.80;87.10;;;;;;4972822;28;20102;-80
2021/03/02 02:07:00;;;;;;;4.72;1.90;;;3.80;87.20;;;;;;4935931;29;20047;-81
2021/03/02 02:09:36;;;;;;;4.25;1.60;;;3.80;87.10;;;;;;4941371;29;20168;-81
2021/03/02 02:12:09;;;;;;;3.67;1.58;;;3.80;87.30;;;;;;4940063;29;20039;-80
2021/03/02 02:14:44;;;;;;;4.10;1.75;;;3.70;87.20;;;;;;4951145;29;20052;-80
2021/03/02 02:17:18;;;;;;;3.45;1.52;;;3.80;87.30;;;;;;4949754;29;20169;-81
2021/03/02 02:19:59;;;;;;;3.67;1.50;;;3.70;87.30;;;;;;4950181;29;20048;-80
2021/03/02 02:22:56;;;;;;;3.67;1.73;;;3.70;87.40;;;;;;4921545;29;20142;-81
2021/03/02 02:25:36;;;;;;;4.82;1.60;;;3.70;87.40;;;;;;4926605;29;20040;-82
2021/03/02 02:28:03;;;;;;;3.55;1.55;;;3.60;87.30;;;;;;4944862;29;20063;-82
2021/03/02 02:30:30;;;;;;;2.97;1.50;;;3.60;87.20;;;;;;4902822;29;20031;-81
2021/03/02 02:32:57;;;;;;;4.32;1.58;;;3.70;87.40;;;;;;4935184;29;20426;-82
2021/03/02 02:35:25;;;;;;;3.47;1.63;;;3.60;87.30;;;;;;4933871;29;20063;-81
2021/03/02 02:37:52;;;;;;;4.07;1.83;;;3.60;87.40;;;;;;4953021;28;20027;-82
2021/03/02 02:40:21;;;;;;;3.40;1.40;;;3.60;87.40;;;;;;4956461;28;20149;-81
2021/03/02 02:42:50;;;;;;;3.80;1.73;;;3.60;87.40;;;;;;4978815;28;20046;-83
2021/03/02 02:45:17;;;;;;;3.63;1.60;;;3.50;87.40;;;;;;4969510;28;20053;-81
2021/03/02 02:47:46;;;;;;;3.85;1.30;;;3.50;87.50;;;;;;4915812;29;20074;-79
2021/03/02 02:50:13;;;;;;;3.92;1.50;;;3.40;87.40;;;;;;4952771;29;20079;-81
2021/03/02 02:52:40;;;;;;;4.85;1.73;;;3.50;87.50;;;;;;4930887;29;20051;-80
2021/03/02 02:55:07;;;;;;;3.70;1.70;;;3.50;87.50;;;;;;4930577;29;20034;-79
2021/03/02 02:57:41;;;;;;;4.65;1.75;;;3.50;87.60;;;;;;4946380;29;20051;-80
2021/03/02 03:00:08;;;;;;;2.65;1.38;;;3.40;87.60;;;;;;4928266;29;20043;-78
2021/03/02 03:02:36;;;;;;;3.15;1.77;;;3.40;87.60;;;;;;4937967;29;20051;-79
2021/03/02 03:05:08;;;;;;;4.68;1.60;;;3.40;87.60;;;;;;4957985;29;20077;-80
2021/03/02 03:07:41;;;;;;;3.42;1.40;;;3.40;87.70;;;;;;4954382;29;20440;-79
2021/03/02 03:10:10;;;;;;;2.63;1.50;;;3.40;87.70;;;;;;4953193;28;20091;-79
2021/03/02 03:12:41;;;;;;;4.05;1.80;;;3.30;87.70;;;;;;4923003;29;20081;-80
2021/03/02 03:15:09;;;;;;;4.07;1.52;;;3.30;87.80;;;;;;4945119;29;20121;-80
2021/03/02 03:17:41;;;;;;;3.75;1.40;;;3.30;87.80;;;;;;4940047;28;20047;-78
2021/03/02 03:20:10;;;;;;;3.22;1.33;;;3.30;87.90;;;;;;4977385;28;20036;-79
2021/03/02 03:22:37;;;;;;;2.67;1.30;;;3.30;87.90;;;;;;4975669;28;20085;-79
2021/03/02 03:25:05;;;;;;;5.00;1.40;;;3.30;88.00;;;;;;4992187;28;20393;-80
2021/03/02 03:27:32;;;;;;;3.22;1.52;;;3.30;88.00;;;;;;4959266;28;20039;-80
2021/03/02 03:30:00;;;;;;;3.85;1.60;;;3.20;87.90;;;;;;4992124;28;20038;-79
2021/03/02 03:32:27;;;;;;;4.70;1.70;;;3.20;88.00;;;;;;4975202;28;20509;-79
2021/03/02 03:34:54;;;;;;;3.10;1.48;;;3.20;88.00;;;;;;4975558;28;20968;-80
2021/03/02 03:37:20;;;;;;;4.05;1.60;;;3.10;88.00;;;;;;4991977;28;20034;-79
2021/03/02 03:39:47;;;;;;;4.10;1.73;;;3.10;88.10;;;;;;4974603;28;20404;-79
2021/03/02 03:42:13;;;;;;;4.65;1.90;;;3.10;88.10;;;;;;4939438;28;20062;-79
2021/03/02 03:44:38;;;;;;;2.85;1.27;;;3.10;88.10;;;;;;4992205;28;20034;-79
2021/03/02 03:47:05;;;;;;;3.83;1.75;;;3.10;88.10;;;;;;4958545;28;20133;-79
2021/03/02 03:49:31;;;;;;;3.83;1.55;;;3.10;88.10;;;;;;4958794;28;20127;-79
2021/03/02 03:51:58;;;;;;;3.08;1.20;;;3.10;88.20;;;;;;4991912;28;20035;-80
2021/03/02 03:54:28;;;;;;;3.08;1.52;;;3.10;88.30;;;;;;4975158;28;20544;-79
2021/03/02 03:56:54;;;;;;;3.25;1.52;;;3.10;88.30;;;;;;4974480;28;20034;-79
2021/03/02 03:59:23;;;;;;;3.22;1.42;;;3.00;88.30;;;;;;4991656;28;20187;-79
2021/03/02 04:01:50;;;;;;;3.20;1.42;;;3.00;88.30;;;;;;4975354;28;20117;-79
2021/03/02 04:04:17;;;;;;;2.78;1.30;;;3.10;88.40;;;;;;4974354;28;20038;-79
2021/03/02 04:06:44;;;;;;;3.63;1.52;;;3.00;88.30;;;;;;4991953;28;20031;-79
2021/03/02 04:09:10;;;;;;;3.17;1.50;;;3.00;88.40;;;;;;4992013;28;20027;-79
2021/03/02 04:11:36;;;;;;;2.78;1.42;;;3.00;88.30;;;;;;4992554;28;20508;-79
2021/03/02 04:14:03;;;;;;;3.38;1.35;;;3.00;88.30;;;;;;4995438;28;20030;-79
2021/03/02 04:16:30;;;;;;;5.00;1.42;;;3.00;88.30;;;;;;4977620;28;20078;-78
2021/03/02 04:18:57;;;;;;;3.30;1.55;;;2.90;88.20;;;;;;4977533;28;20185;-78
2021/03/02 04:21:23;;;;;;;4.13;1.65;;;3.00;88.30;;;;;;4995030;28;20073;-79
2021/03/02 04:23:48;;;;;;;3.60;1.63;;;3.00;88.30;;;;;;4978074;28;20477;-79
2021/03/02 04:26:14;;;;;;;3.35;1.73;;;3.00;88.30;;;;;;4977534;28;20039;-79
2021/03/02 04:28:40;;;;;;;4.68;1.65;;;3.00;88.30;;;;;;4977501;28;20041;-78
2021/03/02 04:31:05;;;;;;;4.25;1.77;;;3.00;88.30;;;;;;4961438;28;20528;-79
2021/03/02 04:33:31;;;;;;;4.55;2.05;;;2.90;88.30;;;;;;4994890;28;20034;-79
2021/03/02 04:35:57;;;;;;;3.20;1.30;;;2.90;88.30;;;;;;4977544;28;20092;-79
2021/03/02 04:38:22;;;;;;;4.13;1.70;;;2.90;88.30;;;;;;4961267;28;20093;-79
2021/03/02 04:40:48;;;;;;;3.38;1.55;;;2.90;88.40;;;;;;4994898;28;20065;-79
2021/03/02 04:43:14;;;;;;;2.75;1.48;;;2.90;88.40;;;;;;4977187;28;20030;-79
2021/03/02 04:45:40;;;;;;;2.13;1.25;;;2.90;88.40;;;;;;4994723;28;20057;-79
2021/03/02 04:48:06;;;;;;;3.33;1.55;;;2.80;88.50;;;;;;4961296;28;20456;-79
2021/03/02 04:50:32;;;;;;;3.63;1.58;;;2.90;88.50;;;;;;4994515;28;20408;-79
2021/03/02 04:52:57;;;;;;;3.85;1.80;;;2.90;88.50;;;;;;4977194;28;20034;-79
2021/03/02 04:55:23;;;;;;;3.42;1.60;;;2.80;88.50;;;;;;4976977;28;20196;-79
2021/03/02 04:57:48;;;;;;;4.13;1.60;;;2.90;88.60;;;;;;4944868;28;20041;-79
2021/03/02 05:00:15;;;;;;;3.40;1.60;;;2.80;88.50;;;;;;4960958;28;20042;-79
2021/03/02 05:02:41;;;;;;;2.70;1.20;;;2.80;88.60;;;;;;4993459;28;20108;-79
2021/03/02 05:05:07;;;;;;;3.65;1.50;;;2.80;88.60;;;;;;4994605;28;20062;-79
2021/03/02 05:07:33;;;;;;;3.22;1.30;;;2.80;88.60;;;;;;4993647;28;20042;-79
2021/03/02 05:09:59;;;;;;;2.78;1.30;;;2.80;88.60;;;;;;4960895;28;20436;-79
2021/03/02 05:12:24;;;;;;;2.95;1.45;;;2.80;88.60;;;;;;4994487;28;20396;-79
2021/03/02 05:14:50;;;;;;;4.13;1.92;;;2.80;88.60;;;;;;4960612;28;20038;-79
2021/03/02 05:17:16;;;;;;;3.83;1.40;;;2.70;88.60;;;;;;4994823;28;20104;-79
2021/03/02 05:19:41;;;;;;;3.28;1.55;;;2.80;88.70;;;;;;4975236;28;20473;-79
2021/03/02 05:22:07;;;;;;;4.22;1.52;;;2.70;88.70;;;;;;4960296;28;20054;-81
2021/03/02 05:24:33;;;;;;;3.60;1.50;;;2.80;89.30;;;;;;4960576;28;20089;-79
2021/03/02 05:26:59;;;;;;;3.33;1.60;;;2.70;88.70;;;;;;4976452;28;20458;-80
2021/03/02 05:29:25;;;;;;;3.35;1.40;;;2.70;88.70;;;;;;4994597;28;20166;-80
2021/03/02 05:31:50;;;;;;;3.28;1.30;;;2.70;88.70;;;;;;4994217;28;20034;-79
2021/03/02 05:34:16;;;;;;;4.50;2.05;;;2.70;88.70;;;;;;4974366;28;20034;-80
2021/03/02 05:36:42;;;;;;;3.75;1.83;;;2.70;88.70;;;;;;4976601;28;20047;-79
2021/03/02 05:39:07;;;;;;;3.17;1.30;;;2.60;88.70;;;;;;4976672;28;20039;-79
2021/03/02 05:41:35;;;;;;;2.95;1.50;;;2.70;88.80;;;;;;4944229;28;20080;-80
2021/03/02 05:44:01;;;;;;;2.65;1.30;;;2.70;88.80;;;;;;4976604;28;20061;-80
2021/03/02 05:46:28;;;;;;;4.45;1.58;;;2.70;88.80;;;;;;4992672;28;20061;-80
2021/03/02 05:48:54;;;;;;;3.85;1.48;;;2.70;88.80;;;;;;4976209;28;20105;-80
2021/03/02 05:51:20;;;;;;;3.88;1.65;;;2.70;88.80;;;;;;4993669;28;20085;-80
2021/03/02 05:53:46;;;;;;;3.97;1.60;;;2.70;88.80;;;;;;4976671;28;20077;-80
2021/03/02 05:56:12;;;;;;;3.67;1.38;;;2.70;88.80;;;;;;4993572;28;20117;-80
2021/03/02 05:58:38;;;;;;;2.63;1.25;;;2.70;88.80;;;;;;4959885;28;20045;-80
2021/03/02 06:01:05;;;;;;;3.28;1.42;;;2.60;88.80;;;;;;4993483;28;20042;-81
2021/03/02 06:03:35;;;;;;;4.47;1.52;;;2.60;88.80;;;;;;4959857;28;20038;-80
2021/03/02 06:06:01;;;;;;;3.83;1.60;;;2.60;88.80;;;;;;4993789;28;20085;-80
2021/03/02 06:08:27;;;;;;;3.65;1.52;;;2.60;88.80;;;;;;4959592;28;20120;-80
2021/03/02 06:10:53;;;;;;;3.75;1.67;;;2.60;88.80;;;;;;4993525;28;20980;-80
2021/03/02 06:13:31;;;;;;;2.33;1.25;;;2.60;88.80;;;;;;4943988;28;20031;-80
2021/03/02 06:15:58;;;;;;;3.45;1.60;;;2.50;88.80;;;;;;4993492;28;20026;-80
2021/03/02 06:18:24;;;;;;;3.17;1.23;;;2.60;88.80;;;;;;4976073;28;20122;-80
2021/03/02 06:20:51;;;;;;;3.40;1.60;;;2.60;88.90;;;;;;4975801;28;20085;-81
2021/03/02 06:23:23;;;;;;;2.88;1.42;;;2.60;88.90;;;;;;4917115;29;20498;-80
2021/03/02 06:25:51;;;;;;;4.07;1.65;;;2.60;88.90;;;;;;4917452;29;20036;-80
2021/03/02 06:28:35;;;;;;;3.17;1.30;;;2.60;88.90;;;;;;4914293;29;20436;-80
2021/03/02 06:31:01;;;;;;;2.90;1.23;;;2.60;89.60;;;;;;4898355;29;20469;-80
2021/03/02 06:33:27;;;;;;;3.58;1.50;;;2.60;88.90;;;;;;4881893;29;20123;-80
2021/03/02 06:35:55;;;;;;;3.45;1.55;;;2.60;88.90;;;;;;4914594;29;20032;-80
2021/03/02 06:38:33;;;;;;;4.93;1.60;;;2.70;88.90;;;;;;4883346;29;20040;-81
2021/03/02 06:41:00;;;;;;;4.22;1.60;;;2.60;88.90;;;;;;4913423;29;20446;-80
2021/03/02 06:43:43;;;;;;;3.78;1.45;;;2.60;88.90;;;;;;4913893;29;20487;-80
2021/03/02 06:46:10;;;;;;;3.05;1.38;;;2.60;88.90;;;;;;4913734;29;20092;-80
2021/03/02 06:48:52;;;;;;;2.10;1.20;;;2.70;88.90;;;;;;4882587;29;20443;-80
2021/03/02 06:51:33;;;;;;;2.65;1.30;;;2.70;89.00;;;;;;4866939;29;20044;-80
2021/03/02 06:54:17;;;;;;;2.85;1.23;;;2.70;89.00;;;;;;4920774;29;20130;-80
2021/03/02 06:56:44;;;;;;;2.20;1.30;;;2.70;88.90;;;;;;4952062;28;20044;-79
2021/03/02 06:59:12;;;;;;;3.30;1.55;;;2.70;88.90;;;;;;4952070;29;20178;-80
2021/03/02 07:01:40;;;;;;;2.85;1.40;;;2.80;88.80;;;;;;4951912;28;20051;-80
2021/03/02 07:04:10;;;;;;;3.97;1.60;;;2.80;88.70;;;;;;4952069;28;20072;-80
2021/03/02 07:06:37;;;;;;;3.63;1.60;;;2.90;88.70;;;;;;4973406;28;20125;-80
2021/03/02 07:09:05;;;;;;;3.22;1.52;;;2.90;88.60;;;;;;4958984;28;20034;-79
2021/03/02 07:11:32;;;;;;;5.40;2.00;;;3.00;88.50;;;;;;4992935;28;20066;-78
2021/03/02 07:13:59;;;;;;;3.33;1.70;;;3.00;88.50;;;;;;4997143;28;20196;-79
2021/03/02 07:16:25;;;;;;;3.30;1.50;;;3.00;88.40;;;;;;4975145;28;20477;-81
2021/03/02 07:18:51;;;;;;;3.70;1.65;;;3.00;88.30;;;;;;4958911;28;20042;-80
2021/03/02 07:21:18;;;;;;;3.67;1.58;;;3.10;88.30;;;;;;4991005;28;20056;-80
2021/03/02 07:23:44;;;;;;;5.70;2.42;;;3.20;88.20;;;;;;4974908;28;20093;-80
2021/03/02 07:26:12;;;;;;;3.35;1.60;;;3.20;88.10;;;;;;4958942;28;20035;-80
2021/03/02 07:28:40;;;;;;;3.65;1.88;;;3.20;88.10;;;;;;4992336;28;20082;-79
2021/03/02 07:31:05;;;;;;;3.58;1.60;;;3.30;88.00;;;;;;4975043;28;20121;-80
2021/03/02 07:33:32;;;;;;;3.45;1.75;;;3.40;88.00;;;;;;4958517;28;20126;-80
2021/03/02 07:35:58;;;;;;;3.80;1.77;;;3.50;87.90;;;;;;4993182;28;20041;-80
2021/03/02 07:38:24;;;;;;;3.58;1.98;;;3.50;87.90;;;;;;4975840;28;20030;-80
2021/03/02 07:40:54;;;;;;;3.72;1.70;;;3.60;87.80;;;;;;4992800;28;20042;-79
2021/03/02 07:43:38;;;;;;;3.90;1.55;;;3.70;87.70;;;;;;4992337;28;20404;-79
2021/03/02 07:46:43;;;;;;;2.83;1.27;;;3.70;87.50;;;;;;4963661;28;20105;-79
2021/03/02 07:49:28;;;;;;;3.42;1.55;;;3.90;87.50;;;;;;4954229;29;20042;-79
2021/03/02 07:52:18;;;;;;;5.53;2.10;;;4.00;87.40;;;;;;4954683;29;20043;-79
2021/03/02 07:54:45;;;;;;;3.17;1.60;;;4.00;87.20;;;;;;4926333;29;20078;-79
2021/03/02 07:57:26;;;;;;;3.50;1.65;;;4.10;87.10;;;;;;4955013;29;20067;-79
2021/03/02 08:00:26;;;;;;;3.67;1.70;;;4.20;87.00;;;;;;4953198;29;20094;-79
2021/03/02 08:03:29;;;;;;;3.08;1.58;;;4.20;86.90;;;;;;4955166;29;20043;-79
2021/03/02 08:06:24;;;;;;;3.45;1.50;;;4.40;86.80;;;;;;4954993;29;20040;-83
2021/03/02 08:08:51;;;;;;;2.83;1.38;;;4.50;86.70;;;;;;4912404;29;20122;-79
2021/03/02 08:11:32;;;;;;;4.55;1.85;;;4.70;86.60;;;;;;4920399;29;20086;-79
2021/03/02 08:14:30;;;;;;;4.75;1.73;;;4.80;86.60;;;;;;4953839;29;20035;-86
2021/03/02 08:17:02;;;;;;;2.55;1.35;;;4.80;86.40;;;;;;4954789;28;20139;-78
2021/03/02 08:19:37;;;;;;;3.63;1.80;;;4.90;86.20;;;;;;4946919;28;20029;-80
2021/03/02 08:22:42;;;;;;;2.95;1.60;;;5.20;86.30;;;;;;4977721;28;20041;-79
2021/03/02 08:25:11;;;;;;;2.95;1.50;;;5.20;86.20;;;;;;4980371;28;20500;-82
2021/03/02 08:27:49;;;;;;;2.90;1.30;;;5.30;86.10;;;;;;4945804;28;20489;-79
2021/03/02 08:30:38;;;;;;;2.90;1.30;;;5.30;86.10;;;;;;4962007;28;20459;-77
2021/03/02 08:33:10;;;;;;;3.25;1.40;;;5.40;86.00;;;;;;4963616;28;20558;-77
2021/03/02 08:35:40;;;;;;;3.17;1.50;;;5.60;86.00;;;;;;4977735;28;20410;-79
2021/03/02 08:38:07;;;;;;;3.63;1.50;;;5.70;86.00;;;;;;4998273;28;20106;-80
2021/03/02 08:40:48;;;;;;;4.90;1.98;;;5.70;85.80;;;;;;4997966;28;20084;-83
2021/03/02 08:43:20;;;;;;;3.60;1.73;;;5.90;85.70;;;;;;4945307;28;20039;-77
2021/03/02 08:45:57;;;;;;;3.97;1.98;;;6.00;85.60;;;;;;4994640;28;20034;-80
2021/03/02 08:48:26;;;;;;;2.78;1.45;;;6.00;85.50;;;;;;4937048;29;20035;-80
2021/03/02 08:50:57;;;;;;;4.53;1.70;;;6.10;85.40;;;;;;4923393;29;20371;-79
2021/03/02 08:53:28;;;;;;;3.80;1.77;;;6.10;85.40;;;;;;4938061;29;20102;-76
2021/03/02 08:55:54;;;;;;;3.22;1.50;;;6.20;85.30;;;;;;4923380;29;20043;-80
2021/03/02 08:58:29;;;;;;;5.75;1.90;;;6.50;85.30;;;;;;4954928;29;20047;-83
2021/03/02 09:01:02;;;;;;;3.97;1.50;;;6.40;85.10;;;;;;4925366;29;20106;-81
2021/03/02 09:03:29;;;;;;;3.22;1.45;;;6.40;85.00;;;;;;4941428;29;20114;-82
2021/03/02 09:06:10;;;;;;;4.38;1.80;;;6.50;85.00;;;;;;4942447;29;20039;-85
2021/03/02 09:08:51;;;;;;;2.17;1.40;;;6.50;85.00;;;;;;4924577;29;20434;-82
2021/03/02 09:11:19;;;;;;;4.07;1.70;;;6.60;84.80;;;;;;4954899;29;20043;-81
2021/03/02 09:13:45;;;;;;;2.83;1.45;;;6.60;84.80;;;;;;4938177;29;20043;-76
2021/03/02 09:16:38;;;;;;;2.70;1.50;;;6.70;84.80;;;;;;4956595;29;20494;-83
2021/03/02 09:19:32;;;;;;;3.58;1.70;;;6.70;84.80;;;;;;4959521;28;20034;-81
2021/03/02 09:22:07;;;;;;;3.05;1.58;;;6.80;84.70;;;;;;4999291;28;20049;-84
2021/03/02 09:24:36;;;;;;;5.10;2.20;;;6.80;85.20;;;;;;4960635;28;20437;-80
2021/03/02 09:27:05;;;;;;;4.68;1.95;;;6.80;84.60;;;;;;4977218;28;20050;-82
2021/03/02 09:29:38;;;;;;;3.28;1.60;;;6.90;84.60;;;;;;4961015;28;20038;-81
2021/03/02 09:32:06;;;;;;;3.80;1.77;;;7.00;84.50;;;;;;4962861;28;20089;-81
2021/03/02 09:34:46;;;;;;;3.33;1.67;;;7.10;84.50;;;;;;4994964;28;20080;-83
2021/03/02 09:37:15;;;;;;;4.32;1.90;;;7.10;84.30;;;;;;4961311;28;20053;-84
2021/03/02 09:39:43;;;;;;;2.63;1.50;;;7.30;84.30;;;;;;4960659;28;20034;-82
2021/03/02 09:42:18;;;;;;;3.33;1.80;;;7.30;84.20;;;;;;4992466;28;20841;-84
2021/03/02 09:44:47;;;;;;;4.03;2.00;;;7.40;84.10;;;;;;4960245;28;20066;-81
2021/03/02 09:47:18;;;;;;;3.33;1.55;;;7.40;84.00;;;;;;4960618;28;20034;-82
2021/03/02 09:49:46;;;;;;;2.25;1.40;;;7.60;83.90;;;;;;4976707;28;20027;-82
2021/03/02 09:52:29;;;;;;;3.28;1.70;;;7.60;83.70;;;;;;4960105;28;20034;-83
2021/03/02 09:55:13;;;;;;;3.47;1.70;;;7.80;83.60;;;;;;4960735;28;20070;-85
2021/03/02 09:57:58;;;;;;;3.25;1.63;;;7.90;83.60;;;;;;4976374;28;20555;-82
2021/03/02 10:00:38;;;;;;;4.07;1.77;;;8.00;83.40;;;;;;4960552;28;20440;-84
2021/03/02 10:03:09;;;;;;;3.17;1.30;;;8.10;83.30;;;;;;4933434;29;20106;-82
2021/03/02 10:05:42;;;;;;;3.78;1.75;;;8.10;83.10;;;;;;4933579;29;20482;-79
2021/03/02 10:08:43;;;;;;;4.07;1.95;;;8.20;83.00;;;;;;4933225;29;20187;-80
2021/03/02 10:11:30;;;;;;;3.08;1.38;;;8.30;82.90;;;;;;4934702;29;20043;-83
2021/03/02 10:13:59;;;;;;;2.75;1.30;;;8.40;82.70;;;;;;4921375;29;20049;-82
2021/03/02 10:16:42;;;;;;;3.95;1.92;;;8.50;83.30;;;;;;4875339;29;20134;-84
2021/03/02 10:22:12;;;;;;;4.80;1.75;;;8.60;82.40;;;;;;4799836;29;20605;-81
2021/03/02 10:24:40;;;;;;;3.72;1.77;;;8.70;82.40;;;;;;4791383;29;20030;-84
2021/03/02 10:27:12;;;;;;;2.50;1.50;;;8.80;82.30;;;;;;4821527;29;20106;-77
2021/03/02 10:29:38;;;;;;;3.25;1.80;;;8.90;82.20;;;;;;4806594;29;20475;-76
2021/03/02 10:32:04;;;;;;;3.72;1.83;;;9.00;82.10;;;;;;4821255;29;20034;-77
2021/03/02 10:34:33;;;;;;;2.90;1.70;;;9.10;82.10;;;;;;4818292;29;20133;-79
2021/03/02 10:37:00;;;;;;;3.03;1.50;;;9.10;81.90;;;;;;4839882;29;20042;-79
2021/03/02 10:39:27;;;;;;;3.05;1.60;;;9.20;81.80;;;;;;4829605;29;20436;-77
2021/03/02 10:41:53;;;;;;;3.13;1.70;;;9.20;81.60;;;;;;4810765;29;20100;-80
2021/03/02 10:44:22;;;;;;;3.30;1.67;;;9.40;81.50;;;;;;4827589;29;20065;-83
2021/03/02 10:46:48;;;;;;;3.00;1.60;;;9.60;81.40;;;;;;4893979;28;20117;-77
2021/03/02 10:49:14;;;;;;;3.13;1.38;;;9.60;81.20;;;;;;4998283;28;20042;-78
2021/03/02 10:51:41;;;;;;;2.88;1.50;;;9.70;81.00;;;;;;4975925;28;20113;-80
2021/03/02 10:54:11;;;;;;;2.65;1.50;;;10.00;80.90;;;;;;4993920;28;20038;-79
2021/03/02 10:56:37;;;;;;;3.22;1.63;;;10.10;80.70;;;;;;4944173;28;20042;-80
2021/03/02 10:59:05;;;;;;;3.13;1.70;;;10.10;80.40;;;;;;4942563;28;20034;-78
2021/03/02 11:05:18;;;;;;;3.40;1.60;;;10.40;80.10;;;;;;4910916;29;20071;-78
2021/03/02 11:08:10;;;;;;;2.90;1.48;;;10.50;79.80;;;;;;4877577;29;20635;-78
2021/03/02 11:10:36;;;;;;;2.55;1.40;;;10.60;79.60;;;;;;4859627;29;20049;-79
2021/03/02 11:13:01;;;;;;;2.00;1.33;;;10.70;79.40;;;;;;4875535;29;20141;-80
2021/03/02 11:15:27;;;;;;;3.00;1.55;;;10.80;79.30;;;;;;4873147;29;20044;-80
2021/03/02 11:17:53;;;;;;;3.03;1.52;;;10.90;79.20;;;;;;4867954;29;20500;-80
2021/03/02 11:20:19;;;;;;;2.28;1.42;;;11.00;79.10;;;;;;4849098;29;20128;-82
2021/03/02 11:22:45;;;;;;;2.70;1.48;;;11.10;79.10;;;;;;4865451;29;20739;-81
2021/03/02 11:25:17;;;;;;;2.40;1.55;;;11.20;78.80;;;;;;4875428;29;20128;-81
2021/03/02 11:27:45;;;;;;;2.55;1.40;;;11.30;78.70;;;;;;4870424;29;20046;-80
2021/03/02 11:30:12;;;;;;;2.83;1.50;;;11.30;78.60;;;;;;4907124;29;20036;-80
2021/03/02 11:32:37;;;;;;;2.95;1.67;;;11.50;78.60;;;;;;4904832;29;20048;-80
2021/03/02 11:35:08;;;;;;;3.65;1.70;;;11.60;78.30;;;;;;4920912;29;20088;-81
2021/03/02 11:37:37;;;;;;;2.53;1.43;;;11.70;78.10;;;;;;4930394;29;20051;-81
2021/03/02 11:40:08;;;;;;;1.30;1.10;;;11.70;77.90;;;;;;4938462;29;20051;-81
2021/03/02 11:42:34;;;;;;;2.60;1.60;;;11.80;77.90;;;;;;4933463;29;20047;-79
2021/03/02 11:45:02;;;;;;;2.42;1.30;;;11.90;77.80;;;;;;4916082;29;20044;-79
2021/03/02 11:47:28;;;;;;;2.42;1.38;;;12.00;77.70;;;;;;4947068;28;20126;-80
2021/03/02 11:49:53;;;;;;;1.95;1.38;;;12.10;77.60;;;;;;4974995;28;20515;-80
2021/03/02 11:52:24;;;;;;;3.50;1.50;;;12.20;77.50;;;;;;4974933;28;20401;-80
2021/03/02 11:54:50;;;;;;;2.80;1.52;;;12.30;77.30;;;;;;4990776;28;20073;-80
2021/03/02 11:57:17;;;;;;;3.30;1.40;;;12.40;77.20;;;;;;4974500;28;20080;-80
2021/03/02 11:59:43;;;;;;;3.38;1.48;;;12.50;77.10;;;;;;4958551;28;20062;-78
2021/03/02 12:02:12;;;;;;;2.78;1.65;;;12.50;76.90;;;;;;4974332;28;20489;-77
2021/03/02 12:04:37;;;;;;;2.47;1.60;;;12.60;76.70;;;;;;4990676;28;20113;-80
2021/03/02 12:07:04;;;;;;;2.75;1.40;;;12.80;76.60;;;;;;4946487;28;20494;-78
2021/03/02 12:09:30;;;;;;;2.60;1.60;;;12.90;76.40;;;;;;4980133;28;20050;-78
2021/03/02 12:11:55;;;;;;;2.60;1.50;;;13.00;76.20;;;;;;4981640;28;20169;-78
2021/03/02 12:14:21;;;;;;;3.05;1.52;;;13.10;76.00;;;;;;4955957;28;20104;-76
2021/03/02 12:16:47;;;;;;;3.17;1.58;;;13.20;75.80;;;;;;4974357;28;20034;-78
2021/03/02 12:19:13;;;;;;;1.63;1.30;;;13.30;75.60;;;;;;4957945;28;20038;-77
2021/03/02 12:21:39;;;;;;;2.35;1.42;;;13.30;75.30;;;;;;4991456;28;20516;-76
2021/03/02 12:24:05;;;;;;;2.50;1.40;;;13.40;75.30;;;;;;4975815;28;20106;-82
2021/03/02 12:26:31;;;;;;;2.38;1.40;;;13.60;75.30;;;;;;4960035;28;20039;-81
2021/03/02 12:28:59;;;;;;;2.80;1.60;;;13.70;75.10;;;;;;4961546;28;20034;-81
2021/03/02 12:31:26;;;;;;;2.85;1.40;;;13.80;75.00;;;;;;4985102;28;20065;-80
2021/03/02 12:33:52;;;;;;;2.53;1.40;;;13.80;74.70;;;;;;4986894;28;20097;-79
2021/03/02 12:36:18;;;;;;;2.05;1.20;;;14.00;74.60;;;;;;4944966;28;20046;-80
2021/03/02 12:38:43;;;;;;;3.10;1.60;;;14.00;74.40;;;;;;4941329;28;20138;-78
2021/03/02 12:41:09;;;;;;;2.88;1.38;;;14.10;74.20;;;;;;4977097;28;20088;-80
2021/03/02 12:43:35;;;;;;;2.13;1.40;;;14.30;74.10;;;;;;4994470;28;20030;-77
2021/03/02 12:46:02;;;;;;;2.40;1.60;;;14.30;73.90;;;;;;4977354;28;20563;-80
2021/03/02 12:48:28;;;;;;;2.13;1.30;;;14.40;73.70;;;;;;4983060;28;20064;-78
2021/03/02 12:50:53;;;;;;;2.63;1.55;;;14.50;73.70;;;;;;5007899;28;20484;-80
2021/03/02 12:53:19;;;;;;;1.98;1.40;;;14.60;73.50;;;;;;4985706;28;20074;-77
2021/03/02 12:55:45;;;;;;;2.78;1.50;;;14.70;73.20;;;;;;5006160;28;20093;-77
2021/03/02 12:58:11;;;;;;;2.35;1.45;;;14.80;73.10;;;;;;4998088;28;20038;-77
2021/03/02 13:00:36;;;;;;;2.20;1.38;;;14.90;72.90;;;;;;5000348;28;20038;-78
2021/03/02 13:03:03;;;;;;;4.90;1.63;;;14.90;72.90;;;;;;5000683;28;20134;-78
2021/03/02 13:05:29;;;;;;;2.78;1.52;;;15.10;72.80;;;;;;4969642;28;20042;-78
2021/03/02 13:07:56;;;;;;;2.45;1.58;;;15.30;72.60;;;;;;4980079;28;20038;-78
2021/03/02 13:10:23;;;;;;;3.35;1.60;;;15.40;72.40;;;;;;4981849;28;20053;-76
2021/03/02 13:12:49;;;;;;;3.35;1.52;;;15.40;72.30;;;;;;5001666;28;20129;-76
2021/03/02 13:15:16;;;;;;;2.63;1.63;;;15.40;72.30;;;;;;4984865;28;20074;-77
2021/03/02 13:17:43;;;;;;;2.05;1.45;;;15.40;72.20;;;;;;5001272;28;20058;-76
2021/03/02 13:20:10;;;;;;;2.33;1.30;;;15.30;72.30;;;;;;5007134;28;20042;-77